Time;durP1;ratioP1;P1;durP2;ratioP2;P2;SDS_P1;SDS_P2;PMS_P1;PMS_P2;Temp;Humidity;BMP_temperature;BMP_pressure;BME280_temperature;BME280_humidity;BME280_pressure;Samples;Min_cycle;Max_cycle;Signal;HPM_P1;HPM_P2
2022/11/06 00:01:43;;;;;;;9.52;3.70;;;10.00;99.90;;;;;;4978971;28;20968;-64
2022/11/06 00:04:09;;;;;;;6.10;4.50;;;10.00;99.90;;;;;;5008641;28;20707;-64
2022/11/06 00:06:48;;;;;;;13.68;3.72;;;10.00;99.90;;;;;;4999160;28;20233;-64
2022/11/06 00:09:17;;;;;;;8.00;4.32;;;10.00;99.90;;;;;;5001034;28;20198;-64
2022/11/06 00:11:44;;;;;;;6.85;3.72;;;10.00;99.90;;;;;;4990902;28;20194;-64
2022/11/06 00:14:11;;;;;;;7.75;3.45;;;10.00;99.90;;;;;;4990727;28;20304;-63
2022/11/06 00:16:40;;;;;;;4.97;3.40;;;10.00;99.90;;;;;;5000818;28;20435;-64
2022/11/06 00:19:08;;;;;;;8.55;4.18;;;10.00;99.90;;;;;;5011468;28;20297;-64
2022/11/06 00:21:36;;;;;;;4.47;3.08;;;10.00;99.90;;;;;;5001808;28;20287;-64
2022/11/06 00:24:05;;;;;;;7.43;3.58;;;10.00;99.90;;;;;;4999880;28;20206;-64
2022/11/06 00:26:33;;;;;;;8.23;4.15;;;10.10;99.90;;;;;;4991690;28;20356;-64
2022/11/06 00:29:00;;;;;;;6.28;3.45;;;10.00;99.90;;;;;;4987736;28;20356;-63
2022/11/06 00:31:30;;;;;;;6.28;3.53;;;10.10;99.90;;;;;;5012447;28;20774;-64
2022/11/06 00:34:00;;;;;;;3.55;3.00;;;10.10;99.90;;;;;;5000091;28;20282;-64
2022/11/06 00:36:29;;;;;;;10.70;4.20;;;10.00;99.90;;;;;;4994980;28;20312;-64
2022/11/06 00:38:57;;;;;;;6.85;3.08;;;10.10;99.90;;;;;;4999993;28;20891;-65
2022/11/06 00:41:24;;;;;;;6.05;3.38;;;10.10;99.90;;;;;;4989948;28;20231;-63
2022/11/06 00:43:54;;;;;;;5.65;2.97;;;10.10;99.90;;;;;;4987678;28;20293;-63
2022/11/06 00:46:23;;;;;;;7.03;3.90;;;10.00;99.90;;;;;;5010492;28;20244;-64
2022/11/06 00:48:50;;;;;;;3.88;3.08;;;10.10;99.90;;;;;;4999691;28;20615;-64
2022/11/06 00:51:19;;;;;;;6.80;3.38;;;10.00;99.90;;;;;;5001568;28;20316;-64
2022/11/06 00:53:46;;;;;;;8.13;3.40;;;10.10;99.90;;;;;;5005685;28;20294;-64
2022/11/06 00:56:15;;;;;;;5.05;3.35;;;10.10;99.90;;;;;;4985169;28;20719;-64
2022/11/06 00:58:43;;;;;;;5.07;3.42;;;10.10;99.90;;;;;;4999509;28;20289;-64
2022/11/06 01:01:11;;;;;;;8.10;3.45;;;10.10;99.90;;;;;;5002374;28;20795;-64
2022/11/06 01:03:40;;;;;;;5.40;3.72;;;10.10;99.90;;;;;;5004868;28;20528;-64
2022/11/06 01:06:08;;;;;;;7.72;3.65;;;10.10;99.90;;;;;;4999812;28;20799;-64
2022/11/06 01:08:37;;;;;;;9.43;3.95;;;10.10;99.90;;;;;;5002331;28;20782;-64
2022/11/06 01:11:09;;;;;;;9.02;3.53;;;10.10;99.90;;;;;;4999131;28;20323;-63
2022/11/06 01:13:35;;;;;;;11.65;3.92;;;10.10;99.90;;;;;;4977156;28;20201;-63
2022/11/06 01:16:05;;;;;;;7.05;3.38;;;10.10;99.90;;;;;;4987030;28;20328;-64
2022/11/06 01:18:32;;;;;;;6.68;3.20;;;10.20;99.90;;;;;;5008483;28;21046;-64
2022/11/06 01:20:59;;;;;;;6.22;3.30;;;10.20;99.90;;;;;;4996553;28;20296;-64
2022/11/06 01:23:26;;;;;;;10.90;4.72;;;10.20;99.90;;;;;;4999513;28;20317;-64
2022/11/06 01:25:58;;;;;;;3.75;3.10;;;10.20;99.90;;;;;;4996669;28;20300;-64
2022/11/06 01:28:26;;;;;;;7.93;4.13;;;10.20;99.90;;;;;;4988680;28;20206;-63
2022/11/06 01:30:54;;;;;;;12.82;3.75;;;10.20;99.90;;;;;;4986693;28;20208;-64
2022/11/06 01:33:21;;;;;;;5.28;3.45;;;10.20;99.90;;;;;;5007889;28;20324;-63
2022/11/06 01:35:50;;;;;;;5.53;3.47;;;10.20;99.90;;;;;;4993949;28;20316;-63
2022/11/06 01:38:17;;;;;;;7.60;3.28;;;10.20;99.90;;;;;;4999805;28;20206;-64
2022/11/06 01:40:46;;;;;;;4.85;3.33;;;10.30;99.90;;;;;;5000018;28;20305;-64
2022/11/06 01:43:19;;;;;;;6.03;3.90;;;10.20;99.90;;;;;;4981151;28;20403;-64
2022/11/06 01:45:48;;;;;;;8.68;3.65;;;10.30;99.90;;;;;;5011377;28;20330;-63
2022/11/06 01:48:16;;;;;;;8.02;3.78;;;10.30;99.90;;;;;;4995965;28;20211;-64
2022/11/06 01:50:47;;;;;;;7.25;3.80;;;10.30;99.90;;;;;;4997926;28;20293;-64
2022/11/06 01:53:15;;;;;;;6.10;3.15;;;10.30;99.90;;;;;;5002450;28;20696;-63
2022/11/06 01:55:45;;;;;;;4.63;3.33;;;10.30;99.90;;;;;;5009276;28;20288;-63
2022/11/06 01:58:17;;;;;;;5.20;3.08;;;10.30;99.90;;;;;;4993453;28;20321;-64
2022/11/06 02:00:46;;;;;;;8.38;3.35;;;10.30;99.90;;;;;;5011178;28;20198;-64
2022/11/06 02:03:13;;;;;;;8.13;4.00;;;10.30;99.90;;;;;;4990494;28;20997;-63
2022/11/06 02:05:41;;;;;;;7.28;3.80;;;10.30;99.90;;;;;;5009210;28;20813;-64
2022/11/06 02:08:11;;;;;;;7.05;3.85;;;10.30;99.90;;;;;;5008041;28;21278;-64
2022/11/06 02:10:38;;;;;;;5.50;3.33;;;10.30;99.90;;;;;;4999803;28;20344;-64
2022/11/06 02:13:19;;;;;;;6.00;3.42;;;10.30;99.90;;;;;;4989713;28;20319;-64
2022/11/06 02:15:51;;;;;;;6.78;3.30;;;10.30;99.90;;;;;;5000329;28;20289;-63
2022/11/06 02:18:31;;;;;;;7.88;4.07;;;10.30;99.90;;;;;;4991538;28;20743;-64
2022/11/06 02:21:26;;;;;;;5.50;3.40;;;10.30;99.90;;;;;;5000027;28;20276;-64
2022/11/06 02:24:21;;;;;;;4.53;3.30;;;10.30;99.90;;;;;;5013119;28;20289;-64
2022/11/06 02:27:10;;;;;;;5.95;3.17;;;10.30;99.90;;;;;;4974582;28;20290;-62
2022/11/06 02:29:45;;;;;;;5.03;3.28;;;10.30;99.90;;;;;;4993660;28;20204;-64
2022/11/06 02:32:18;;;;;;;4.95;2.65;;;10.30;99.90;;;;;;4991349;28;20387;-65
2022/11/06 02:34:47;;;;;;;4.47;3.03;;;10.30;99.90;;;;;;5011532;28;21273;-62
2022/11/06 02:37:19;;;;;;;5.28;3.50;;;10.30;99.90;;;;;;4988930;28;20340;-62
2022/11/06 02:39:48;;;;;;;5.68;3.28;;;10.30;99.90;;;;;;5011794;28;20619;-62
2022/11/06 02:42:19;;;;;;;5.10;3.20;;;10.30;99.90;;;;;;5000054;28;20359;-63
2022/11/06 02:44:49;;;;;;;4.88;2.88;;;10.30;99.90;;;;;;4989718;28;20215;-62
2022/11/06 02:47:19;;;;;;;6.30;3.58;;;10.30;99.90;;;;;;5008910;28;20333;-61
2022/11/06 02:49:50;;;;;;;8.18;3.45;;;10.30;99.90;;;;;;4993579;28;20218;-62
2022/11/06 02:52:23;;;;;;;11.55;3.30;;;10.30;99.90;;;;;;4998306;28;20327;-62
2022/11/06 02:54:55;;;;;;;7.65;2.90;;;10.30;99.90;;;;;;5012081;28;20210;-62
2022/11/06 02:57:26;;;;;;;5.50;3.65;;;10.30;99.90;;;;;;4993203;28;20234;-62
2022/11/06 03:00:02;;;;;;;5.75;3.22;;;10.30;99.90;;;;;;5007132;28;20300;-62
2022/11/06 03:02:34;;;;;;;7.32;3.67;;;10.30;99.90;;;;;;4996143;28;20825;-63
2022/11/06 03:05:08;;;;;;;4.45;3.00;;;10.30;99.90;;;;;;4991438;28;20356;-63
2022/11/06 03:07:39;;;;;;;9.23;3.45;;;10.30;99.90;;;;;;4998953;28;20853;-63
2022/11/06 03:10:07;;;;;;;3.85;3.00;;;10.30;99.90;;;;;;5009239;28;20776;-63
2022/11/06 03:12:45;;;;;;;5.25;3.17;;;10.30;99.90;;;;;;4998028;28;20289;-63
2022/11/06 03:15:19;;;;;;;5.43;3.65;;;10.30;99.90;;;;;;5013501;28;20297;-63
2022/11/06 03:17:52;;;;;;;5.03;3.25;;;10.30;99.90;;;;;;4993023;28;20231;-63
2022/11/06 03:20:26;;;;;;;6.47;3.20;;;10.30;99.90;;;;;;4990480;28;20375;-63
2022/11/06 03:22:58;;;;;;;7.65;3.22;;;10.30;99.90;;;;;;5000230;28;23069;-63
2022/11/06 03:25:29;;;;;;;6.72;3.55;;;10.30;99.90;;;;;;5007760;28;20289;-63
2022/11/06 03:28:05;;;;;;;5.30;3.53;;;10.30;99.90;;;;;;5004388;28;20254;-63
2022/11/06 03:30:35;;;;;;;7.85;3.38;;;10.30;99.90;;;;;;5007302;28;20284;-63
2022/11/06 03:33:09;;;;;;;5.70;3.00;;;10.30;99.90;;;;;;4989612;28;20297;-63
2022/11/06 03:35:43;;;;;;;7.40;3.30;;;10.30;99.90;;;;;;4984799;28;20768;-63
2022/11/06 03:38:14;;;;;;;7.07;3.58;;;10.30;99.90;;;;;;4997940;28;20316;-63
2022/11/06 03:40:45;;;;;;;6.35;3.08;;;10.30;99.90;;;;;;4999190;28;20640;-62
2022/11/06 03:43:17;;;;;;;5.28;2.75;;;10.30;99.90;;;;;;5002075;28;20905;-63
2022/11/06 03:45:46;;;;;;;6.10;3.22;;;10.30;99.90;;;;;;5009966;28;20241;-63
2022/11/06 03:48:19;;;;;;;7.63;3.50;;;10.30;99.90;;;;;;4988723;28;20285;-62
2022/11/06 03:50:51;;;;;;;4.35;3.33;;;10.20;99.90;;;;;;4987871;28;20829;-63
2022/11/06 03:53:23;;;;;;;5.80;3.10;;;10.30;99.90;;;;;;4997273;28;20297;-63
2022/11/06 03:55:55;;;;;;;10.27;3.33;;;10.20;99.90;;;;;;4999383;28;20199;-63
2022/11/06 03:58:26;;;;;;;7.30;3.28;;;10.20;99.90;;;;;;4997955;28;20320;-63
2022/11/06 04:00:54;;;;;;;4.07;3.03;;;10.20;99.90;;;;;;5010042;28;20289;-63
2022/11/06 04:03:26;;;;;;;6.78;3.60;;;10.10;99.90;;;;;;4999445;28;20295;-63
2022/11/06 04:05:58;;;;;;;5.13;3.83;;;10.20;99.90;;;;;;4981839;28;20263;-62
2022/11/06 04:14:04;;;;;;;6.20;3.15;;;10.20;99.90;;;;;;4998055;28;20297;-63
2022/11/06 04:16:34;;;;;;;5.65;3.35;;;10.20;99.90;;;;;;5007317;28;20230;-63
2022/11/06 04:19:01;;;;;;;5.88;3.30;;;10.20;99.90;;;;;;5011683;28;20285;-63
2022/11/06 04:21:47;;;;;;;5.80;3.20;;;10.10;99.90;;;;;;4962551;28;20225;-62
2022/11/06 04:27:22;;;;;;;8.48;3.22;;;10.10;99.90;;;;;;5000941;28;20643;-63
2022/11/06 04:30:02;;;;;;;13.00;3.60;;;10.10;99.90;;;;;;4997720;28;20234;-63
2022/11/06 04:32:39;;;;;;;8.85;3.45;;;10.10;99.90;;;;;;5006421;28;20281;-63
2022/11/06 04:35:11;;;;;;;4.70;3.28;;;10.10;99.90;;;;;;4989441;28;21418;-63
2022/11/06 04:37:46;;;;;;;3.97;2.88;;;10.10;99.90;;;;;;4983173;28;20440;-63
2022/11/06 04:40:22;;;;;;;4.80;2.63;;;10.10;99.90;;;;;;5009641;28;20226;-63
2022/11/06 04:42:54;;;;;;;14.55;3.20;;;10.10;99.90;;;;;;4996929;28;20307;-63
2022/11/06 04:45:26;;;;;;;7.50;3.58;;;10.10;99.90;;;;;;5001523;28;20642;-62
2022/11/06 04:47:55;;;;;;;6.57;3.47;;;10.10;99.90;;;;;;5010069;28;20986;-63
2022/11/06 04:50:23;;;;;;;4.25;3.10;;;10.10;99.90;;;;;;4989095;28;20325;-63
2022/11/06 04:52:51;;;;;;;7.47;3.30;;;10.00;99.90;;;;;;4986906;28;20284;-63
2022/11/06 04:55:20;;;;;;;7.80;3.03;;;10.00;99.90;;;;;;5008545;28;21002;-63
2022/11/06 04:57:47;;;;;;;7.13;3.33;;;10.00;99.90;;;;;;4999891;28;20399;-63
2022/11/06 05:00:16;;;;;;;7.03;3.10;;;10.10;99.90;;;;;;4996108;28;20742;-63
2022/11/06 05:02:44;;;;;;;6.07;3.03;;;10.00;99.90;;;;;;5004474;28;20495;-63
2022/11/06 05:05:11;;;;;;;7.20;3.20;;;10.00;99.90;;;;;;5011581;28;20345;-63
2022/11/06 05:07:38;;;;;;;3.65;3.00;;;10.00;99.90;;;;;;4980818;28;21033;-63
2022/11/06 05:10:06;;;;;;;5.97;3.40;;;10.00;99.90;;;;;;4996945;28;20221;-63
2022/11/06 05:12:33;;;;;;;6.57;3.22;;;10.00;99.90;;;;;;5013542;28;20739;-63
2022/11/06 05:14:59;;;;;;;4.40;3.00;;;10.00;99.90;;;;;;4990519;28;20210;-63
2022/11/06 05:17:26;;;;;;;9.13;3.97;;;10.00;99.90;;;;;;5002998;28;20317;-63
2022/11/06 05:19:54;;;;;;;10.25;3.75;;;9.90;99.90;;;;;;5002007;28;20285;-64
2022/11/06 05:25:06;;;;;;;8.32;3.40;;;9.90;99.90;;;;;;4995226;28;20304;-63
2022/11/06 05:27:33;;;;;;;3.63;2.55;;;9.90;99.90;;;;;;5008607;28;20330;-62
2022/11/06 05:30:00;;;;;;;7.28;3.00;;;9.90;99.90;;;;;;4997671;28;21048;-63
2022/11/06 05:32:26;;;;;;;5.90;3.15;;;9.90;99.90;;;;;;5003468;28;20440;-63
2022/11/06 05:34:54;;;;;;;3.78;3.15;;;10.00;99.90;;;;;;5001648;28;20627;-63
2022/11/06 05:37:21;;;;;;;5.78;3.15;;;9.90;99.90;;;;;;4982286;28;20234;-63
2022/11/06 05:39:48;;;;;;;4.83;2.80;;;10.00;99.90;;;;;;4991784;28;20289;-63
2022/11/06 05:42:15;;;;;;;4.40;3.03;;;9.90;99.90;;;;;;5011933;28;20202;-63
2022/11/06 05:44:42;;;;;;;3.90;2.95;;;9.90;99.90;;;;;;5006585;28;20309;-63
2022/11/06 05:47:09;;;;;;;6.68;3.72;;;9.90;99.90;;;;;;5009180;28;20738;-63
2022/11/06 05:49:36;;;;;;;6.97;3.35;;;9.90;99.90;;;;;;4997881;28;20298;-62
2022/11/06 05:52:04;;;;;;;4.22;3.00;;;9.90;99.90;;;;;;4978531;28;20709;-63
2022/11/06 05:54:31;;;;;;;8.60;3.60;;;9.90;99.90;;;;;;5013527;28;20294;-63
2022/11/06 05:56:58;;;;;;;5.88;2.90;;;9.90;99.90;;;;;;4984995;28;20747;-64
2022/11/06 05:59:25;;;;;;;3.65;3.03;;;9.90;99.90;;;;;;5014702;28;20306;-63
2022/11/06 06:01:51;;;;;;;8.35;3.10;;;9.90;99.90;;;;;;4997405;28;20650;-63
2022/11/06 06:04:18;;;;;;;4.47;2.63;;;9.80;99.90;;;;;;5005037;28;20297;-63
2022/11/06 06:06:45;;;;;;;3.80;2.78;;;9.80;99.90;;;;;;5001311;28;20292;-63
2022/11/06 06:09:13;;;;;;;8.88;3.38;;;9.90;99.90;;;;;;4989796;28;20296;-63
2022/11/06 06:11:40;;;;;;;8.13;2.95;;;9.90;99.90;;;;;;4999472;28;20308;-63
2022/11/06 06:14:07;;;;;;;4.03;2.88;;;9.90;99.90;;;;;;4996363;28;20392;-63
2022/11/06 06:16:34;;;;;;;5.17;2.73;;;9.90;99.90;;;;;;5014192;28;20233;-63
2022/11/06 06:19:01;;;;;;;10.40;3.15;;;9.90;99.90;;;;;;4991675;28;20403;-64
2022/11/06 06:21:28;;;;;;;6.20;2.80;;;9.90;99.90;;;;;;5011770;28;20317;-63
2022/11/06 06:23:54;;;;;;;7.22;3.05;;;9.90;99.90;;;;;;4988044;28;20734;-64
2022/11/06 06:26:23;;;;;;;4.97;2.80;;;9.80;99.90;;;;;;4999829;28;20293;-63
2022/11/06 06:28:49;;;;;;;6.10;3.15;;;9.90;99.90;;;;;;4980552;28;20225;-63
2022/11/06 06:31:16;;;;;;;12.60;3.38;;;9.80;99.90;;;;;;5014192;28;20400;-64
2022/11/06 06:33:43;;;;;;;3.47;2.95;;;9.80;99.90;;;;;;4992371;28;20301;-63
2022/11/06 06:36:10;;;;;;;4.10;2.63;;;9.90;99.90;;;;;;5012202;28;20296;-63
2022/11/06 06:38:37;;;;;;;5.40;2.60;;;9.80;99.90;;;;;;5012689;28;20340;-63
2022/11/06 06:41:06;;;;;;;5.78;2.55;;;9.80;99.90;;;;;;4990892;28;20206;-64
2022/11/06 06:43:35;;;;;;;9.57;2.78;;;9.80;99.90;;;;;;5005817;28;20289;-64
2022/11/06 06:46:04;;;;;;;10.93;3.17;;;9.80;99.90;;;;;;4988878;28;20333;-63
2022/11/06 06:48:31;;;;;;;6.38;2.58;;;9.80;99.90;;;;;;5012148;28;20294;-64
2022/11/06 06:50:59;;;;;;;9.00;2.95;;;9.70;99.90;;;;;;4978990;28;20699;-63
2022/11/06 06:53:26;;;;;;;6.05;3.00;;;9.80;99.90;;;;;;5012380;28;20225;-63
2022/11/06 06:55:53;;;;;;;5.82;2.95;;;9.80;99.90;;;;;;4981014;28;20769;-64
2022/11/06 06:58:20;;;;;;;9.38;3.10;;;9.90;99.90;;;;;;5010751;28;20325;-63
2022/11/06 07:00:48;;;;;;;6.88;2.60;;;9.90;99.90;;;;;;4976675;28;20353;-63
2022/11/06 07:03:15;;;;;;;4.80;2.65;;;9.90;99.90;;;;;;4990926;28;20210;-63
2022/11/06 07:05:43;;;;;;;3.20;2.25;;;9.90;99.90;;;;;;4981570;28;20289;-63
2022/11/06 07:08:10;;;;;;;7.05;3.25;;;9.90;99.90;;;;;;4981554;28;20317;-63
2022/11/06 07:10:38;;;;;;;9.68;2.60;;;9.90;99.90;;;;;;4995384;28;20755;-63
2022/11/06 07:13:05;;;;;;;8.23;2.72;;;9.90;99.90;;;;;;4982697;28;20256;-63
2022/11/06 07:15:32;;;;;;;2.63;2.22;;;9.90;99.90;;;;;;4987281;28;20210;-63
2022/11/06 07:18:03;;;;;;;7.40;2.88;;;9.80;99.90;;;;;;4991735;28;20380;-63
2022/11/06 07:20:30;;;;;;;7.60;2.90;;;10.00;99.90;;;;;;4994697;28;20226;-63
2022/11/06 07:22:57;;;;;;;9.85;2.95;;;9.90;99.90;;;;;;4980674;28;20865;-63
2022/11/06 07:25:24;;;;;;;5.15;3.15;;;9.90;99.90;;;;;;5010600;28;20204;-64
2022/11/06 07:27:51;;;;;;;5.25;2.90;;;10.00;99.90;;;;;;4983446;28;20321;-63
2022/11/06 07:30:18;;;;;;;8.10;2.47;;;10.00;99.90;;;;;;5001380;28;20326;-63
2022/11/06 07:32:45;;;;;;;3.42;2.08;;;10.00;99.90;;;;;;4976300;28;20954;-63
2022/11/06 07:35:13;;;;;;;3.25;2.65;;;10.00;99.90;;;;;;4992849;28;20268;-63
2022/11/06 07:37:40;;;;;;;4.35;2.25;;;10.00;99.90;;;;;;4997961;28;20305;-63
2022/11/06 07:40:08;;;;;;;3.78;2.40;;;10.00;99.90;;;;;;4997921;28;20321;-63
2022/11/06 07:42:35;;;;;;;5.32;2.33;;;10.00;99.90;;;;;;4985205;28;20351;-63
2022/11/06 07:45:02;;;;;;;6.40;2.30;;;10.00;99.90;;;;;;5009713;28;20298;-63
2022/11/06 07:47:30;;;;;;;4.03;2.30;;;10.00;99.90;;;;;;4988550;28;20238;-63
2022/11/06 07:49:57;;;;;;;6.75;2.58;;;10.10;99.90;;;;;;5007587;28;20396;-63
2022/11/06 07:52:25;;;;;;;7.43;2.45;;;10.10;99.90;;;;;;4988597;28;20576;-63
2022/11/06 07:54:52;;;;;;;3.25;2.13;;;10.10;99.90;;;;;;4964141;28;20260;-63
2022/11/06 07:57:19;;;;;;;6.05;2.50;;;10.20;99.90;;;;;;4987869;28;20336;-63
2022/11/06 07:59:46;;;;;;;3.33;2.10;;;10.20;99.90;;;;;;4985393;28;20333;-63
2022/11/06 08:02:14;;;;;;;3.90;2.40;;;10.30;99.90;;;;;;4979072;28;20247;-64
2022/11/06 08:04:41;;;;;;;9.65;2.47;;;10.40;99.90;;;;;;5002016;28;20317;-63
2022/11/06 08:07:08;;;;;;;2.65;2.17;;;10.30;99.90;;;;;;4981432;28;21906;-64
2022/11/06 08:09:36;;;;;;;3.38;2.40;;;10.40;99.90;;;;;;4995074;28;20332;-63
2022/11/06 08:12:03;;;;;;;3.40;2.20;;;10.40;99.90;;;;;;4983143;28;20206;-63
2022/11/06 08:14:30;;;;;;;6.38;2.20;;;10.40;99.90;;;;;;4973646;28;20310;-63
2022/11/06 08:16:57;;;;;;;3.28;2.28;;;10.40;99.90;;;;;;4985774;28;20377;-64
2022/11/06 08:19:24;;;;;;;6.25;2.58;;;10.50;99.90;;;;;;5008508;28;20802;-64
2022/11/06 08:21:51;;;;;;;2.97;2.00;;;10.50;99.90;;;;;;4994484;28;20790;-64
2022/11/06 08:24:18;;;;;;;8.73;2.13;;;10.50;99.90;;;;;;4998537;28;20642;-63
2022/11/06 08:26:46;;;;;;;8.13;2.05;;;10.50;99.90;;;;;;4995972;28;20296;-64
2022/11/06 08:29:13;;;;;;;6.85;2.65;;;10.50;99.90;;;;;;4986915;28;20317;-64
2022/11/06 08:31:40;;;;;;;4.95;2.10;;;10.60;99.90;;;;;;4973948;28;20309;-64
2022/11/06 08:34:07;;;;;;;6.13;2.15;;;10.60;99.90;;;;;;5004990;28;20217;-63
2022/11/06 08:36:37;;;;;;;6.90;2.28;;;10.70;99.90;;;;;;4999579;28;20208;-63
2022/11/06 08:39:04;;;;;;;5.45;2.10;;;10.70;99.90;;;;;;4989803;28;20810;-63
2022/11/06 08:41:31;;;;;;;6.53;2.10;;;10.70;99.90;;;;;;4985116;28;20322;-63
2022/11/06 08:43:59;;;;;;;8.98;2.10;;;10.80;99.90;;;;;;5007583;28;20280;-63
2022/11/06 08:46:26;;;;;;;5.70;1.88;;;10.80;99.90;;;;;;4974423;28;20330;-63
2022/11/06 08:48:53;;;;;;;4.75;1.80;;;10.90;99.90;;;;;;4984479;28;20340;-63
2022/11/06 08:51:20;;;;;;;5.38;1.98;;;10.90;99.90;;;;;;5005666;28;20285;-64
2022/11/06 08:53:47;;;;;;;2.58;1.73;;;11.00;99.90;;;;;;4978564;28;20275;-64
2022/11/06 08:56:14;;;;;;;5.82;2.17;;;11.00;99.90;;;;;;5006751;28;20257;-63
2022/11/06 08:58:40;;;;;;;2.17;1.90;;;10.90;99.90;;;;;;4988157;28;20233;-64
2022/11/06 09:01:09;;;;;;;4.00;2.30;;;11.00;99.90;;;;;;4987070;28;20929;-64
2022/11/06 09:03:36;;;;;;;3.50;1.98;;;11.00;99.90;;;;;;4954164;28;20213;-64
2022/11/06 09:06:05;;;;;;;5.15;2.10;;;11.00;99.90;;;;;;5002669;28;20736;-63
2022/11/06 09:08:32;;;;;;;3.50;1.83;;;11.00;99.90;;;;;;4974346;28;20279;-63
2022/11/06 09:10:58;;;;;;;7.15;2.40;;;11.10;99.90;;;;;;4975250;28;20244;-64
2022/11/06 09:13:26;;;;;;;4.85;2.25;;;11.10;99.90;;;;;;4984492;28;20316;-63
2022/11/06 09:15:53;;;;;;;5.15;2.30;;;11.10;99.90;;;;;;4988903;28;20380;-64
2022/11/06 09:18:21;;;;;;;7.20;2.00;;;11.20;99.90;;;;;;4983909;28;20226;-64
2022/11/06 09:20:48;;;;;;;8.32;2.13;;;11.20;99.90;;;;;;4977403;28;20279;-64
2022/11/06 09:23:15;;;;;;;3.35;1.80;;;11.30;99.90;;;;;;4982572;28;20756;-64
2022/11/06 09:25:41;;;;;;;5.20;1.92;;;11.30;99.90;;;;;;4982881;28;20984;-63
2022/11/06 09:28:08;;;;;;;3.40;1.90;;;11.30;99.90;;;;;;4978681;28;20319;-64
2022/11/06 09:30:35;;;;;;;4.97;2.20;;;11.30;99.90;;;;;;5000206;28;20217;-63
2022/11/06 09:33:03;;;;;;;5.15;1.90;;;11.30;99.90;;;;;;4976821;28;20814;-64
2022/11/06 09:35:33;;;;;;;2.88;1.88;;;11.30;99.90;;;;;;4978678;28;20303;-63
2022/11/06 09:38:02;;;;;;;3.35;2.05;;;11.30;99.90;;;;;;4985291;28;20308;-64
2022/11/06 09:40:32;;;;;;;4.03;1.70;;;11.30;99.90;;;;;;4989973;28;20224;-63
2022/11/06 09:43:24;;;;;;;2.70;1.60;;;11.30;99.90;;;;;;4969145;28;20379;-64
2022/11/06 09:45:52;;;;;;;7.32;1.75;;;11.30;99.90;;;;;;4989959;28;20234;-64
2022/11/06 09:48:25;;;;;;;3.22;1.80;;;11.30;99.90;;;;;;4976933;28;21300;-63
2022/11/06 09:50:58;;;;;;;6.05;1.77;;;11.30;99.90;;;;;;4970345;28;20230;-63
2022/11/06 09:53:31;;;;;;;2.60;1.90;;;11.30;99.90;;;;;;4992721;28;20341;-63
2022/11/06 09:56:01;;;;;;;6.05;2.30;;;11.30;99.90;;;;;;4983919;28;20301;-63
2022/11/06 09:58:32;;;;;;;3.15;2.25;;;11.40;99.90;;;;;;4984343;28;20237;-63
2022/11/06 10:01:11;;;;;;;7.22;2.90;;;11.30;99.90;;;;;;5003263;28;20651;-64
2022/11/06 10:03:44;;;;;;;7.80;2.72;;;11.40;99.90;;;;;;4979498;28;20293;-63
2022/11/06 10:06:12;;;;;;;6.32;2.95;;;11.40;99.90;;;;;;4980579;28;20276;-63
2022/11/06 10:08:42;;;;;;;4.32;2.45;;;11.40;99.90;;;;;;5001352;28;20288;-63
2022/11/06 10:11:39;;;;;;;4.82;2.22;;;11.50;99.90;;;;;;4988905;28;20600;-63
2022/11/06 10:14:17;;;;;;;3.45;2.13;;;11.50;99.90;;;;;;4993368;28;20202;-63
2022/11/06 10:16:50;;;;;;;3.00;1.50;;;11.60;99.90;;;;;;5006389;28;20325;-63
2022/11/06 10:19:24;;;;;;;4.30;1.95;;;11.60;99.90;;;;;;4979189;28;20230;-63
2022/11/06 10:22:02;;;;;;;2.78;1.88;;;11.70;99.90;;;;;;4983116;28;20290;-64
2022/11/06 10:24:38;;;;;;;8.50;1.80;;;11.80;99.90;;;;;;5002867;28;20841;-64
2022/11/06 10:27:12;;;;;;;2.25;1.30;;;11.80;99.90;;;;;;4984753;28;20695;-63
2022/11/06 10:30:01;;;;;;;4.03;1.55;;;11.80;99.90;;;;;;4992699;28;20345;-63
2022/11/06 10:32:45;;;;;;;2.38;1.70;;;11.80;99.90;;;;;;4987367;28;20240;-63
2022/11/06 10:35:19;;;;;;;4.32;1.60;;;11.90;99.90;;;;;;4977766;28;20248;-63
2022/11/06 10:37:53;;;;;;;3.75;1.60;;;11.90;99.90;;;;;;4981892;28;20240;-64
2022/11/06 10:40:24;;;;;;;7.63;2.10;;;11.90;99.90;;;;;;4985273;28;20233;-63
2022/11/06 10:43:01;;;;;;;3.30;1.80;;;11.90;99.90;;;;;;4994604;28;20257;-63
2022/11/06 10:45:29;;;;;;;5.07;1.75;;;11.90;99.90;;;;;;4999427;28;21077;-63
2022/11/06 10:48:02;;;;;;;4.90;1.58;;;11.90;99.90;;;;;;4985796;28;22377;-63
2022/11/06 10:50:42;;;;;;;3.58;1.70;;;11.90;99.90;;;;;;4974401;28;20288;-63
2022/11/06 10:53:20;;;;;;;7.78;1.80;;;11.90;99.90;;;;;;4978589;28;20779;-63
2022/11/06 10:56:25;;;;;;;6.25;1.90;;;11.90;99.90;;;;;;4998222;28;20212;-63
2022/11/06 10:58:53;;;;;;;4.30;1.60;;;11.90;99.90;;;;;;4983102;28;20237;-63
2022/11/06 11:01:20;;;;;;;3.17;1.80;;;11.30;99.90;;;;;;4988425;28;20241;-63
2022/11/06 11:03:48;;;;;;;2.40;1.40;;;11.90;99.90;;;;;;4994040;28;20241;-63
2022/11/06 11:06:15;;;;;;;4.85;1.63;;;10.90;99.90;;;;;;4972235;28;20265;-63
2022/11/06 11:08:45;;;;;;;5.03;1.60;;;12.00;99.90;;;;;;4997396;28;20704;-63
2022/11/06 11:11:23;;;;;;;2.63;1.50;;;12.10;99.90;;;;;;5000926;28;20807;-63
2022/11/06 11:14:11;;;;;;;4.72;1.50;;;12.20;99.90;;;;;;5006808;28;20337;-63
2022/11/06 11:16:40;;;;;;;3.60;1.77;;;12.20;99.90;;;;;;4992744;28;20947;-63
2022/11/06 11:19:35;;;;;;;3.33;1.55;;;12.30;99.90;;;;;;5000064;28;20321;-63
2022/11/06 11:22:03;;;;;;;4.22;2.15;;;12.30;99.90;;;;;;4969862;28;20421;-63
2022/11/06 11:24:32;;;;;;;3.38;1.83;;;12.40;99.90;;;;;;5005144;28;20245;-63
2022/11/06 11:27:02;;;;;;;6.28;2.38;;;12.50;99.90;;;;;;4991914;28;20380;-62
2022/11/06 11:29:31;;;;;;;6.90;2.00;;;12.50;99.90;;;;;;5005592;28;20326;-63
2022/11/06 11:32:01;;;;;;;5.65;1.65;;;12.50;99.90;;;;;;4994094;28;21392;-63
2022/11/06 11:34:30;;;;;;;4.25;1.70;;;12.50;99.90;;;;;;4998471;28;20289;-63
2022/11/06 11:37:01;;;;;;;2.55;1.50;;;12.50;99.90;;;;;;4979537;28;20987;-63
2022/11/06 11:39:32;;;;;;;2.08;1.55;;;12.50;99.90;;;;;;5006030;28;20801;-63
2022/11/06 11:42:32;;;;;;;4.55;1.50;;;12.60;99.90;;;;;;4992781;28;20340;-63
2022/11/06 11:45:19;;;;;;;3.70;1.80;;;12.50;99.90;;;;;;4968922;28;20254;-63
2022/11/06 11:47:47;;;;;;;8.68;1.65;;;12.60;99.90;;;;;;4966861;28;20314;-63
2022/11/06 11:50:35;;;;;;;2.97;1.25;;;12.60;99.90;;;;;;5001056;28;20233;-62
2022/11/06 11:53:10;;;;;;;4.85;1.60;;;12.60;99.90;;;;;;4974609;28;20320;-63
2022/11/06 11:55:43;;;;;;;3.63;1.90;;;12.60;99.90;;;;;;5006512;28;20225;-63
2022/11/06 11:58:20;;;;;;;6.85;1.90;;;12.60;99.90;;;;;;4998607;28;20297;-66
2022/11/06 12:00:56;;;;;;;3.25;1.48;;;12.60;99.90;;;;;;5002654;28;21065;-63
2022/11/06 12:03:26;;;;;;;3.50;1.60;;;12.60;99.90;;;;;;4991593;28;20391;-63
2022/11/06 12:06:03;;;;;;;2.95;1.63;;;12.60;99.90;;;;;;5007105;28;20337;-63
2022/11/06 12:08:30;;;;;;;4.53;1.63;;;12.60;99.90;;;;;;4977980;28;20211;-63
2022/11/06 12:11:03;;;;;;;3.83;1.73;;;12.60;99.90;;;;;;5004931;28;20214;-63
2022/11/06 12:13:30;;;;;;;4.32;1.70;;;12.60;99.90;;;;;;4997065;28;20206;-63
2022/11/06 12:15:59;;;;;;;1.52;1.42;;;12.60;99.90;;;;;;5002158;28;20292;-63
2022/11/06 12:18:31;;;;;;;5.03;1.77;;;12.70;99.90;;;;;;4993878;28;20213;-63
2022/11/06 12:21:03;;;;;;;1.90;1.40;;;12.70;99.90;;;;;;5002268;28;20328;-64
2022/11/06 12:23:41;;;;;;;3.88;1.67;;;12.70;99.90;;;;;;4972984;28;20363;-63
2022/11/06 12:26:20;;;;;;;2.28;1.30;;;12.70;99.90;;;;;;5011138;28;20285;-63
2022/11/06 12:28:49;;;;;;;6.68;1.60;;;12.70;99.90;;;;;;4981872;28;20225;-63
2022/11/06 12:31:20;;;;;;;3.42;1.55;;;12.70;99.90;;;;;;5005435;28;20914;-63
2022/11/06 12:33:48;;;;;;;3.45;1.40;;;12.70;99.90;;;;;;4982259;28;20217;-63
2022/11/06 12:36:19;;;;;;;1.67;1.30;;;12.70;99.90;;;;;;5003833;28;20222;-62
2022/11/06 12:38:52;;;;;;;3.47;1.30;;;12.70;99.90;;;;;;4970760;28;21804;-63
2022/11/06 12:41:26;;;;;;;4.03;1.60;;;12.60;99.90;;;;;;4998370;28;20978;-63
2022/11/06 12:43:55;;;;;;;4.82;1.60;;;12.60;99.90;;;;;;4986144;28;20310;-63
2022/11/06 12:46:40;;;;;;;2.20;1.20;;;12.60;99.90;;;;;;5005167;28;20718;-63
2022/11/06 12:49:24;;;;;;;6.18;1.45;;;12.50;99.90;;;;;;4992610;28;20301;-63
2022/11/06 12:52:02;;;;;;;5.93;1.85;;;12.50;99.90;;;;;;4997338;28;20218;-63
2022/11/06 12:54:44;;;;;;;3.10;1.98;;;12.50;99.90;;;;;;4968510;28;20308;-63
2022/11/06 12:57:21;;;;;;;4.57;1.88;;;12.50;99.90;;;;;;5005175;28;20304;-63
2022/11/06 13:00:02;;;;;;;2.90;1.20;;;12.40;99.90;;;;;;4987923;28;20222;-63
2022/11/06 13:02:41;;;;;;;3.53;1.48;;;12.40;99.90;;;;;;5004365;28;20198;-63
2022/11/06 13:05:16;;;;;;;5.70;1.20;;;12.40;99.90;;;;;;4994778;28;20206;-63
2022/11/06 13:07:59;;;;;;;3.58;1.45;;;12.50;99.90;;;;;;5000704;28;20293;-63
2022/11/06 13:10:42;;;;;;;3.28;1.52;;;12.40;99.90;;;;;;4973334;28;20267;-63
2022/11/06 13:13:34;;;;;;;4.60;1.73;;;12.40;99.90;;;;;;5006258;28;20245;-62
2022/11/06 13:16:11;;;;;;;5.00;2.13;;;12.40;99.90;;;;;;4993188;28;20197;-63
2022/11/06 13:18:44;;;;;;;5.65;2.70;;;12.40;99.90;;;;;;5002895;28;20293;-63